createdAt,value
2018-03-23T00:00:16.783Z,99.99
2018-03-23T00:01:16.570Z,99.99
2018-03-23T00:02:16.568Z,99.99
2018-03-23T00:03:16.562Z,99.99
2018-03-23T00:04:16.550Z,99.99
2018-03-23T00:05:17.331Z,99.99
2018-03-23T00:06:16.524Z,99.99
2018-03-23T00:07:16.518Z,99.99
2018-03-23T00:08:16.531Z,99.99
2018-03-23T00:09:16.506Z,99.99
2018-03-23T00:10:16.978Z,99.99
2018-03-23T00:11:16.493Z,99.99
2018-03-23T00:12:16.222Z,99.99
2018-03-23T00:13:16.466Z,99.99
2018-03-23T00:14:16.209Z,99.99
2018-03-23T00:15:17.094Z,99.99
2018-03-23T00:16:16.438Z,99.99
2018-03-23T00:17:16.444Z,99.99
2018-03-23T00:18:16.425Z,99.99
2018-03-23T00:19:16.429Z,99.99
2018-03-23T00:20:17.159Z,99.99
2018-03-23T00:21:16.405Z,99.99
2018-03-23T00:22:16.140Z,99.99
2018-03-23T00:23:16.381Z,99.99
2018-03-23T00:24:16.362Z,99.99
2018-03-23T00:25:16.508Z,99.99
2018-03-23T00:26:16.356Z,99.99
2018-03-23T00:27:16.091Z,99.99
2018-03-23T00:28:16.335Z,99.99
2018-03-23T00:29:16.074Z,99.99
2018-03-23T00:30:17.086Z,99.99
2018-03-23T00:31:16.059Z,99.99
2018-03-23T00:32:16.307Z,99.99
2018-03-23T00:33:16.041Z,99.99
2018-03-23T00:34:16.031Z,99.99
2018-03-23T00:35:17.106Z,99.99
2018-03-23T00:36:16.276Z,99.99
2018-03-23T00:37:16.274Z,99.99
2018-03-23T00:38:16.000Z,99.99
2018-03-23T00:39:17.344Z,99.99
2018-03-23T00:40:16.854Z,99.99
2018-03-23T00:41:15.972Z,99.99
2018-03-23T00:42:15.960Z,99.99
2018-03-23T00:43:16.220Z,99.99
2018-03-23T00:44:16.227Z,99.99
2018-03-23T00:45:17.032Z,99.99
2018-03-23T00:46:16.180Z,99.99
2018-03-23T00:47:16.174Z,99.99
2018-03-23T00:48:16.176Z,99.99
2018-03-23T00:49:16.158Z,99.99
2018-03-23T00:50:17.016Z,99.99
2018-03-23T00:51:16.134Z,99.99
2018-03-23T00:52:16.125Z,99.99
2018-03-23T00:53:16.118Z,99.99
2018-03-23T00:54:16.110Z,99.99
2018-03-23T00:55:17.124Z,99.99
2018-03-23T00:56:16.092Z,99.99
2018-03-23T00:57:15.831Z,99.99
2018-03-23T00:58:16.072Z,99.99
2018-03-23T00:59:16.063Z,99.99
2018-03-23T01:00:16.335Z,99.99
2018-03-23T01:01:16.047Z,99.99
2018-03-23T01:02:16.042Z,99.99
2018-03-23T01:03:16.032Z,99.99
2018-03-23T01:04:16.018Z,99.99
2018-03-23T01:05:16.662Z,99.99
2018-03-23T01:06:16.013Z,99.99
2018-03-23T01:07:15.991Z,99.99
2018-03-23T01:08:15.981Z,99.99
2018-03-23T01:09:15.972Z,99.99
2018-03-23T01:10:16.384Z,99.99
2018-03-23T01:11:15.955Z,99.99
2018-03-23T01:12:15.964Z,99.99
2018-03-23T01:13:15.946Z,99.99
2018-03-23T01:14:15.930Z,99.99
2018-03-23T01:15:16.881Z,99.99
2018-03-23T01:16:15.923Z,99.99
2018-03-23T01:17:15.900Z,99.99
2018-03-23T01:18:15.893Z,99.99
2018-03-23T01:19:15.627Z,99.99
2018-03-23T01:20:16.721Z,99.99
2018-03-23T01:21:15.878Z,99.99
2018-03-23T01:22:15.869Z,99.99
2018-03-23T01:23:15.890Z,99.99
2018-03-23T01:24:15.582Z,99.99
2018-03-23T01:25:16.354Z,99.99
2018-03-23T01:26:15.824Z,99.99
2018-03-23T01:27:15.809Z,99.99
2018-03-23T01:28:15.808Z,99.99
2018-03-23T01:29:15.789Z,99.99
2018-03-23T01:30:16.484Z,99.99
2018-03-23T01:31:15.553Z,99.99
2018-03-23T01:32:15.764Z,99.99
2018-03-23T01:33:15.755Z,99.99
2018-03-23T01:34:15.751Z,99.99
2018-03-23T01:35:16.039Z,99.99
2018-03-23T01:36:15.475Z,99.99
2018-03-23T01:37:15.721Z,99.99
2018-03-23T01:38:15.708Z,99.99
2018-03-23T01:39:15.443Z,99.99
2018-03-23T01:40:16.472Z,99.99
2018-03-23T01:41:15.682Z,99.99
2018-03-23T01:42:15.675Z,99.99
2018-03-23T01:43:15.406Z,99.99
2018-03-23T01:44:15.407Z,99.99
2018-03-23T01:45:16.593Z,99.99
2018-03-23T01:46:15.630Z,99.99
2018-03-23T01:47:15.367Z,99.99
2018-03-23T01:48:15.625Z,99.99
2018-03-23T01:49:15.616Z,99.99
2018-03-23T01:50:16.297Z,99.99
2018-03-23T01:51:15.590Z,99.99
2018-03-23T01:52:15.583Z,99.99
2018-03-23T01:53:15.320Z,99.99
2018-03-23T01:54:15.557Z,99.99
2018-03-23T01:55:16.643Z,99.99
2018-03-23T01:56:15.544Z,99.99
2018-03-23T01:57:15.883Z,99.99
2018-03-23T01:58:15.526Z,99.99
2018-03-23T01:59:15.273Z,99.99
2018-03-23T02:00:16.052Z,99.99
2018-03-23T02:01:15.237Z,99.99
2018-03-23T02:02:15.481Z,99.99
2018-03-23T02:03:15.481Z,99.99
2018-03-23T02:04:15.472Z,99.99
2018-03-23T02:05:16.338Z,99.99
2018-03-23T02:06:15.195Z,99.99
2018-03-23T02:07:15.495Z,99.99
2018-03-23T02:08:15.430Z,99.99
2018-03-23T02:09:15.430Z,99.99
2018-03-23T02:10:16.438Z,99.99
2018-03-23T02:11:15.399Z,99.99
2018-03-23T02:12:15.394Z,99.99
2018-03-23T02:13:15.437Z,99.99
2018-03-23T02:14:15.123Z,99.99
2018-03-23T02:15:16.337Z,99.99
2018-03-23T02:16:15.450Z,99.99
2018-03-23T02:17:15.368Z,99.99
2018-03-23T02:18:15.338Z,99.99
2018-03-23T02:19:15.347Z,99.99
2018-03-23T02:20:16.079Z,99.99
2018-03-23T02:21:15.396Z,99.99
2018-03-23T02:22:15.306Z,99.99
2018-03-23T02:23:15.300Z,99.99
2018-03-23T02:24:15.290Z,99.99
2018-03-23T02:25:15.940Z,99.99
2018-03-23T02:26:15.015Z,99.99
2018-03-23T02:27:15.258Z,99.99
2018-03-23T02:28:14.990Z,99.99
2018-03-23T02:29:15.232Z,99.99
2018-03-23T02:30:15.822Z,99.99
2018-03-23T02:31:15.218Z,99.99
2018-03-23T02:32:14.950Z,99.99
2018-03-23T02:33:14.951Z,99.99
2018-03-23T02:34:14.944Z,99.99
2018-03-23T02:35:15.778Z,99.99
2018-03-23T02:36:15.180Z,99.99
2018-03-23T02:37:15.179Z,99.99
2018-03-23T02:38:14.900Z,99.99
2018-03-23T02:39:15.139Z,99.99
2018-03-23T02:40:16.137Z,99.99
2018-03-23T02:41:15.127Z,99.99
2018-03-23T02:42:15.112Z,99.99
2018-03-23T02:43:15.133Z,99.99
2018-03-23T02:44:15.093Z,99.99
2018-03-23T02:45:15.737Z,99.99
2018-03-23T02:46:14.834Z,99.99
2018-03-23T02:47:15.081Z,99.99
2018-03-23T02:48:15.059Z,99.99
2018-03-23T02:49:15.060Z,99.99
2018-03-23T02:50:16.029Z,99.99
2018-03-23T02:51:15.034Z,99.99
2018-03-23T02:52:15.028Z,99.99
2018-03-23T02:53:15.023Z,99.99
2018-03-23T02:54:15.002Z,99.99
2018-03-23T02:55:16.306Z,99.99
2018-03-23T02:56:14.993Z,99.99
2018-03-23T02:57:14.729Z,99.99
2018-03-23T02:58:14.970Z,99.99
2018-03-23T02:59:14.705Z,99.99
2018-03-23T03:00:15.840Z,99.99
2018-03-23T03:01:14.935Z,99.99
2018-03-23T03:02:14.927Z,99.99
2018-03-23T03:03:14.664Z,99.99
2018-03-23T03:04:14.910Z,99.99
2018-03-23T03:05:15.802Z,99.99
2018-03-23T03:06:14.900Z,99.99
2018-03-23T03:07:14.884Z,99.99
2018-03-23T03:08:14.875Z,99.99
2018-03-23T03:09:14.868Z,99.99
2018-03-23T03:10:15.639Z,99.99
2018-03-23T03:11:14.850Z,99.99
2018-03-23T03:12:14.577Z,99.99
2018-03-23T03:13:14.823Z,99.99
2018-03-23T03:14:14.816Z,99.99
2018-03-23T03:15:15.465Z,99.99
2018-03-23T03:16:14.543Z,99.99
2018-03-23T03:17:14.538Z,99.99
2018-03-23T03:18:14.779Z,99.99
2018-03-23T03:19:14.771Z,99.99
2018-03-23T03:20:15.977Z,99.99
2018-03-23T03:21:14.780Z,99.99
2018-03-23T03:22:14.742Z,99.99
2018-03-23T03:23:14.475Z,99.99
2018-03-23T03:24:14.734Z,99.99
2018-03-23T03:25:15.765Z,99.99
2018-03-23T03:26:18.010Z,99.99
2018-03-23T03:27:14.707Z,99.99
2018-03-23T03:28:14.685Z,99.99
2018-03-23T03:29:14.434Z,99.99
2018-03-23T03:30:15.248Z,99.99
2018-03-23T03:31:14.664Z,99.99
2018-03-23T03:32:14.646Z,99.99
2018-03-23T03:33:14.642Z,99.99
2018-03-23T03:34:14.628Z,99.99
2018-03-23T03:35:15.747Z,99.99
2018-03-23T03:36:14.612Z,99.99
2018-03-23T03:37:14.597Z,99.99
2018-03-23T03:38:14.588Z,99.99
2018-03-23T03:39:14.592Z,99.99
2018-03-23T03:40:15.269Z,99.99
2018-03-23T03:41:14.561Z,99.99
2018-03-23T03:42:14.560Z,99.99
2018-03-23T03:43:14.288Z,99.99
2018-03-23T03:44:14.535Z,99.99
2018-03-23T03:45:16.071Z,99.99
2018-03-23T03:46:14.511Z,99.99
2018-03-23T03:47:14.250Z,99.99
2018-03-23T03:48:14.506Z,99.99
2018-03-23T03:49:14.495Z,99.99
2018-03-23T03:50:15.193Z,99.99
2018-03-23T03:51:14.214Z,99.99
2018-03-23T03:52:14.461Z,99.99
2018-03-23T03:53:14.453Z,99.99
2018-03-23T03:54:14.191Z,99.99
2018-03-23T03:55:15.316Z,99.99
2018-03-23T03:56:14.428Z,99.99
2018-03-23T03:57:14.411Z,99.99
2018-03-23T03:58:14.403Z,99.99
2018-03-23T03:59:14.398Z,99.99
2018-03-23T04:00:15.695Z,99.99
2018-03-23T04:01:14.379Z,99.99
2018-03-23T04:02:14.377Z,99.99
2018-03-23T04:03:14.365Z,99.99
2018-03-23T04:04:14.361Z,99.99
2018-03-23T04:05:15.526Z,99.99
2018-03-23T04:06:14.080Z,99.99
2018-03-23T04:07:14.329Z,99.99
2018-03-23T04:08:14.325Z,99.99
2018-03-23T04:09:14.322Z,99.99
2018-03-23T04:10:15.493Z,99.99
2018-03-23T04:11:14.295Z,99.99
2018-03-23T04:12:14.280Z,99.99
2018-03-23T04:13:14.293Z,99.99
2018-03-23T04:14:14.264Z,99.99
2018-03-23T04:15:15.882Z,99.99
2018-03-23T04:16:14.242Z,99.99
2018-03-23T04:17:14.240Z,99.99
2018-03-23T04:18:14.235Z,99.99
2018-03-23T04:19:14.213Z,99.99
2018-03-23T04:20:14.865Z,99.99
2018-03-23T04:21:14.257Z,99.99
2018-03-23T04:22:14.250Z,99.99
2018-03-23T04:23:13.928Z,99.99
2018-03-23T04:24:13.924Z,99.99
2018-03-23T04:25:15.567Z,99.99
2018-03-23T04:26:14.155Z,99.99
2018-03-23T04:27:14.179Z,99.99
2018-03-23T04:28:14.155Z,99.99
2018-03-23T04:29:14.141Z,99.99
2018-03-23T04:30:15.116Z,99.99
2018-03-23T04:31:14.123Z,99.99
2018-03-23T04:32:13.844Z,99.99
2018-03-23T04:33:14.093Z,99.99
2018-03-23T04:34:14.095Z,99.99
2018-03-23T04:35:15.195Z,99.99
2018-03-23T04:36:14.067Z,99.99
2018-03-23T04:37:13.804Z,99.99
2018-03-23T04:38:14.048Z,99.99
2018-03-23T04:39:14.037Z,99.99
2018-03-23T04:40:15.597Z,99.99
2018-03-23T04:41:13.765Z,99.99
2018-03-23T04:42:13.764Z,99.99
2018-03-23T04:43:14.004Z,99.99
2018-03-23T04:44:13.996Z,99.99
2018-03-23T04:45:14.654Z,99.99
2018-03-23T04:46:13.987Z,99.99
2018-03-23T04:47:13.984Z,99.99
2018-03-23T04:48:13.960Z,99.99
2018-03-23T04:49:13.697Z,99.99
2018-03-23T04:50:15.602Z,99.99
2018-03-23T04:51:13.943Z,99.99
2018-03-23T04:52:13.933Z,99.99
2018-03-23T04:53:13.664Z,99.99
2018-03-23T04:54:13.906Z,99.99
2018-03-23T04:55:15.275Z,99.99
2018-03-23T04:56:13.887Z,99.99
2018-03-23T04:57:15.941Z,99.99
2018-03-23T04:58:13.870Z,99.99
2018-03-23T04:59:13.910Z,99.99
2018-03-23T05:00:14.778Z,99.99
2018-03-23T05:01:13.843Z,99.99
2018-03-23T05:02:13.834Z,99.99
2018-03-23T05:03:13.830Z,99.99
2018-03-23T05:04:13.816Z,99.99
2018-03-23T05:05:14.730Z,99.99
2018-03-23T05:06:13.806Z,99.99
2018-03-23T05:07:13.811Z,99.99
2018-03-23T05:08:13.786Z,99.99
2018-03-23T05:09:13.773Z,99.99
2018-03-23T05:10:14.878Z,99.99
2018-03-23T05:11:13.774Z,99.99
2018-03-23T05:12:15.597Z,99.99
2018-03-23T05:13:13.744Z,99.99
2018-03-23T05:14:13.472Z,99.99
2018-03-23T05:15:15.314Z,99.99
2018-03-23T05:16:13.711Z,99.99
2018-03-23T05:17:13.700Z,99.99
2018-03-23T05:18:13.696Z,99.99
2018-03-23T05:19:13.684Z,99.99
2018-03-23T05:20:15.011Z,99.99
2018-03-23T05:21:13.669Z,99.99
2018-03-23T05:22:13.658Z,99.99
2018-03-23T05:23:13.394Z,99.99
2018-03-23T05:24:13.639Z,99.99
2018-03-23T05:25:14.559Z,99.99
2018-03-23T05:26:13.623Z,99.99
2018-03-23T05:27:13.634Z,99.99
2018-03-23T05:28:13.608Z,99.99
2018-03-23T05:29:13.602Z,99.99
2018-03-23T05:30:15.029Z,99.99
2018-03-23T05:31:13.582Z,99.99
2018-03-23T05:32:13.570Z,99.99
2018-03-23T05:33:13.564Z,99.99
2018-03-23T05:34:13.560Z,99.99
2018-03-23T05:35:15.168Z,99.99
2018-03-23T05:36:13.531Z,99.99
2018-03-23T05:37:13.525Z,99.99
2018-03-23T05:38:13.267Z,99.99
2018-03-23T05:39:13.255Z,99.99
2018-03-23T05:40:14.965Z,99.99
2018-03-23T05:41:13.495Z,99.99
2018-03-23T05:42:13.488Z,99.99
2018-03-23T05:43:13.218Z,99.99
2018-03-23T05:44:13.466Z,99.99
2018-03-23T05:45:14.792Z,99.99
2018-03-23T05:46:13.515Z,99.99
2018-03-23T05:47:13.439Z,99.99
2018-03-23T05:48:13.434Z,99.99
2018-03-23T05:49:13.423Z,99.99
2018-03-23T05:50:14.830Z,99.99
2018-03-23T05:51:13.433Z,99.99
2018-03-23T05:52:13.399Z,99.99
2018-03-23T05:53:13.384Z,99.99
2018-03-23T05:54:13.375Z,99.99
2018-03-23T05:55:14.773Z,99.99
2018-03-23T05:56:13.105Z,99.99
2018-03-23T05:57:13.354Z,99.99
2018-03-23T05:58:13.349Z,99.99
2018-03-23T05:59:13.334Z,99.99
2018-03-23T06:00:14.417Z,99.99
2018-03-23T06:01:13.320Z,99.99
2018-03-23T06:02:13.318Z,99.99
2018-03-23T06:03:13.050Z,99.99
2018-03-23T06:04:13.309Z,99.99
2018-03-23T06:05:14.613Z,99.99
2018-03-23T06:06:13.280Z,99.99
2018-03-23T06:07:13.266Z,99.99
2018-03-23T06:08:13.260Z,99.99
2018-03-23T06:09:13.255Z,99.99
2018-03-23T06:10:13.911Z,99.99
2018-03-23T06:11:13.238Z,99.99
2018-03-23T06:12:13.224Z,99.99
2018-03-23T06:13:13.222Z,99.99
2018-03-23T06:14:13.205Z,99.99
2018-03-23T06:15:14.662Z,99.99
2018-03-23T06:16:12.938Z,99.99
2018-03-23T06:17:13.191Z,99.99
2018-03-23T06:18:13.175Z,99.99
2018-03-23T06:27:39.164Z,99.99
2018-03-23T06:28:38.888Z,99.99
2018-03-23T06:29:38.874Z,99.99
2018-03-23T06:30:38.610Z,99.99
2018-03-23T06:31:38.606Z,99.99
2018-03-23T06:32:38.588Z,99.99
2018-03-23T06:33:38.915Z,99.99
2018-03-23T06:34:38.832Z,99.99
2018-03-23T06:35:38.816Z,99.99
2018-03-23T06:36:38.808Z,99.99
2018-03-23T06:37:38.815Z,99.99
2018-03-23T06:38:38.526Z,99.99
2018-03-23T06:39:38.772Z,99.99
2018-03-23T06:40:38.760Z,99.99
2018-03-23T06:41:38.752Z,99.99
2018-03-23T06:42:40.540Z,99.99
2018-03-23T06:43:38.730Z,99.99
2018-03-23T06:44:38.727Z,99.99
2018-03-23T06:45:38.719Z,99.99
2018-03-23T06:46:38.719Z,99.99
2018-03-23T06:47:38.700Z,99.99
2018-03-23T06:48:38.808Z,99.99
2018-03-23T06:49:38.679Z,99.99
2018-03-23T06:50:38.673Z,99.99
2018-03-23T06:51:38.406Z,99.99
2018-03-23T06:52:38.671Z,99.99
2018-03-23T06:53:38.653Z,99.99
2018-03-23T06:54:38.634Z,99.99
2018-03-23T06:55:38.634Z,99.99
2018-03-23T06:56:38.620Z,99.99
2018-03-23T06:57:39.726Z,99.99
2018-03-23T06:58:38.643Z,99.99
2018-03-23T06:59:38.596Z,99.99
2018-03-23T07:00:38.584Z,99.99
2018-03-23T07:01:38.582Z,99.99
2018-03-23T07:02:38.565Z,99.99
2018-03-23T07:03:38.557Z,99.99
2018-03-23T07:04:38.552Z,99.99
2018-03-23T07:05:38.295Z,99.99
2018-03-23T07:06:38.538Z,99.99
2018-03-23T07:07:38.526Z,99.99
2018-03-23T07:08:38.266Z,99.99
2018-03-23T07:09:38.508Z,99.99
2018-03-23T07:10:38.257Z,99.99
2018-03-23T07:11:38.493Z,99.99
2018-03-23T07:12:38.488Z,99.99
2018-03-23T07:13:38.480Z,99.99
2018-03-23T07:14:38.481Z,99.99
2018-03-23T07:15:38.589Z,99.99
2018-03-23T07:16:38.462Z,99.99
2018-03-23T07:17:38.194Z,99.99
2018-03-23T07:18:38.185Z,99.99
2018-03-23T07:19:38.437Z,99.99
2018-03-23T07:20:38.434Z,99.99
2018-03-23T07:21:38.433Z,99.99
2018-03-23T07:22:38.425Z,99.99
2018-03-23T07:23:38.412Z,99.99
2018-03-23T07:24:38.421Z,99.99
2018-03-23T07:25:38.412Z,99.99
2018-03-23T07:26:38.134Z,99.99
2018-03-23T07:27:38.509Z,99.99
2018-03-23T07:28:38.389Z,99.99
2018-03-23T07:29:38.113Z,99.99
2018-03-23T07:30:38.107Z,99.99
2018-03-23T07:31:38.361Z,99.99
2018-03-23T07:32:38.339Z,99.99
2018-03-23T07:33:38.336Z,99.99
2018-03-23T07:34:38.330Z,99.99
2018-03-23T07:35:38.091Z,99.99
2018-03-23T07:36:38.305Z,99.99
2018-03-23T07:37:38.099Z,99.99
2018-03-23T07:38:38.293Z,99.99
2018-03-23T07:39:38.286Z,99.99
2018-03-23T07:40:38.277Z,99.99
2018-03-23T07:41:38.277Z,99.99
2018-03-23T07:42:38.277Z,99.99
2018-03-23T07:43:38.256Z,99.99
2018-03-23T07:44:38.249Z,99.99
2018-03-23T07:45:38.249Z,99.99
2018-03-23T07:46:38.246Z,99.99
2018-03-23T07:47:38.228Z,99.99
2018-03-23T07:48:39.025Z,99.99
2018-03-23T07:49:38.216Z,99.99
2018-03-23T07:50:37.984Z,99.99
2018-03-23T07:51:38.205Z,99.99
2018-03-23T07:52:38.197Z,99.99
2018-03-23T07:53:38.189Z,99.99
2018-03-23T07:54:38.186Z,99.99
2018-03-23T07:55:38.172Z,99.99
2018-03-23T07:56:37.913Z,99.99
2018-03-23T07:57:38.200Z,99.99
2018-03-23T07:58:40.956Z,99.99
2018-03-23T07:59:38.147Z,99.99
2018-03-23T08:00:38.138Z,99.99
2018-03-23T08:01:38.138Z,99.99
2018-03-23T08:02:38.128Z,99.99
2018-03-23T08:03:38.121Z,99.99
2018-03-23T08:04:38.119Z,99.99
2018-03-23T08:05:38.112Z,99.99
2018-03-23T08:06:38.099Z,99.99
2018-03-23T08:07:38.113Z,99.99
2018-03-23T08:08:37.835Z,99.99
2018-03-23T08:09:38.090Z,99.99
2018-03-23T08:10:38.090Z,99.99
2018-03-23T08:11:38.088Z,99.99
2018-03-23T08:12:38.079Z,99.99
2018-03-23T08:13:37.833Z,99.99
2018-03-23T08:14:38.073Z,99.92
2018-03-23T08:15:38.068Z,99.99
2018-03-23T08:16:37.794Z,99.83
2018-03-23T08:17:38.055Z,99.16
2018-03-23T08:18:38.046Z,99.07
2018-03-23T08:19:37.770Z,98.79
2018-03-23T08:20:38.032Z,98.69
2018-03-23T08:21:38.028Z,98.4
2018-03-23T08:22:38.026Z,97.88
2018-03-23T08:23:38.023Z,97.12
2018-03-23T08:24:38.006Z,95.89
2018-03-23T08:25:37.769Z,95.6
2018-03-23T08:26:38.023Z,95.51
2018-03-23T08:27:37.730Z,95.03
2018-03-23T08:28:37.729Z,94.65
2018-03-23T08:29:37.983Z,94.08
2018-03-23T08:30:37.978Z,93.79
2018-03-23T08:31:37.713Z,93.32
2018-03-23T08:32:37.994Z,92.94
2018-03-23T08:33:37.978Z,92.8
2018-03-23T08:34:37.966Z,92.03
2018-03-23T08:35:37.961Z,92.32
2018-03-23T08:36:37.697Z,92.03
2018-03-23T08:37:37.988Z,91.94
2018-03-23T08:38:37.940Z,91.37
2018-03-23T08:39:37.935Z,91.85
2018-03-23T08:40:37.674Z,91.18
2018-03-23T08:41:37.678Z,91.18
2018-03-23T08:42:37.991Z,90.99
2018-03-23T08:43:37.926Z,91.28
2018-03-23T08:44:38.443Z,91.94
2018-03-23T08:45:37.925Z,91.71
2018-03-23T08:46:37.917Z,92.22
2018-03-23T08:47:37.900Z,92.32
2018-03-23T08:48:37.648Z,91.85
2018-03-23T08:49:37.894Z,91.85
2018-03-23T08:50:37.893Z,92.22
2018-03-23T08:51:37.630Z,92.89
2018-03-23T08:52:37.881Z,93.32
2018-03-23T08:53:37.621Z,92.61
2018-03-23T08:54:37.878Z,92.13
2018-03-23T08:55:37.866Z,92.37
2018-03-23T08:56:37.615Z,92.37
2018-03-23T08:57:37.864Z,93.37
2018-03-23T08:58:37.856Z,93.84
2018-03-23T08:59:38.306Z,92.22
2018-03-23T09:00:37.854Z,92.03
2018-03-23T09:01:37.593Z,91.37
2018-03-23T09:02:37.850Z,91.37
2018-03-23T09:03:37.838Z,91.18
2018-03-23T09:04:37.830Z,91.85
2018-03-23T09:05:37.834Z,90.99
2018-03-23T09:06:37.834Z,90.14
2018-03-23T09:07:37.822Z,90.23
2018-03-23T09:08:37.827Z,90.75
2018-03-23T09:09:37.632Z,91.13
2018-03-23T09:10:37.819Z,91.61
2018-03-23T09:11:37.809Z,92.37
2018-03-23T09:12:37.849Z,91.42
2018-03-23T09:13:37.807Z,91.13
2018-03-23T09:14:37.806Z,91.04
2018-03-23T09:15:37.851Z,91.04
2018-03-23T09:16:37.856Z,90.94
2018-03-23T09:17:37.782Z,91.04
2018-03-23T09:18:37.522Z,91.61
2018-03-23T09:19:37.773Z,91.66
2018-03-23T09:20:37.806Z,92.32
2018-03-23T09:21:37.761Z,93.32
2018-03-23T09:22:37.515Z,93.23
2018-03-23T09:23:37.758Z,93.23
2018-03-23T09:24:37.752Z,93.56
2018-03-23T09:25:37.497Z,94.7
2018-03-23T09:26:37.745Z,95.17
2018-03-23T09:27:37.804Z,95.55
2018-03-23T09:28:37.731Z,95.46
2018-03-23T09:29:39.625Z,95.27
2018-03-23T09:30:37.721Z,94.98
2018-03-23T09:31:37.720Z,95.17
2018-03-23T09:32:37.707Z,95.36
2018-03-23T09:33:37.713Z,94.23
2018-03-23T09:34:37.446Z,94.32
2018-03-23T09:35:37.691Z,94.6
2018-03-23T09:36:37.689Z,94.6
2018-03-23T09:37:37.704Z,93.7
2018-03-23T09:38:37.680Z,93.89
2018-03-23T09:39:37.682Z,94.46
2018-03-23T09:40:37.680Z,95.32
2018-03-23T09:41:37.684Z,95.17
2018-03-23T09:42:37.676Z,94.93
2018-03-23T09:43:37.655Z,94.56
2018-03-23T09:44:37.657Z,94.46
2018-03-23T09:45:37.645Z,94.46
2018-03-23T09:46:37.639Z,93.32
2018-03-23T09:47:37.385Z,91.8
2018-03-23T09:48:37.386Z,91.23
2018-03-23T09:49:37.622Z,91.71
2018-03-23T09:50:37.624Z,91.8
2018-03-23T09:51:37.615Z,92.08
2018-03-23T09:52:37.608Z,91.8
2018-03-23T09:53:37.351Z,92.08
2018-03-23T09:54:37.606Z,91.04
2018-03-23T09:55:37.345Z,91.13
2018-03-23T09:56:37.342Z,91.71
2018-03-23T09:57:37.585Z,91.8
2018-03-23T09:58:37.584Z,92.94
2018-03-23T09:59:37.572Z,93.41
2018-03-23T10:00:37.573Z,93.41
2018-03-23T10:01:37.571Z,93.89
2018-03-23T10:02:37.569Z,93.79
2018-03-23T10:03:37.559Z,93.79
2018-03-23T10:04:37.554Z,93.6
2018-03-23T10:05:37.546Z,93.79
2018-03-23T10:06:37.544Z,93.7
2018-03-23T10:07:37.288Z,93.41
2018-03-23T10:08:37.553Z,93.23
2018-03-23T10:09:37.546Z,92.94
2018-03-23T10:10:37.269Z,93.41
2018-03-23T10:11:37.520Z,93.6
2018-03-23T10:12:37.521Z,93.6
2018-03-23T10:13:37.520Z,94.27
2018-03-23T10:14:37.266Z,95.12
2018-03-23T10:15:37.507Z,95.98
2018-03-23T10:16:37.241Z,96.55
2018-03-23T10:17:37.488Z,95.98
2018-03-23T10:18:37.482Z,95.41
2018-03-23T10:19:37.480Z,96.26
2018-03-23T10:20:37.476Z,96.17
2018-03-23T10:21:37.551Z,96.26
2018-03-23T10:22:37.462Z,96.17
2018-03-23T10:23:37.462Z,94.79
2018-03-23T10:24:37.456Z,93.65
2018-03-23T10:25:37.452Z,92.22
2018-03-23T10:26:37.226Z,91.03
2018-03-23T10:57:32.018Z,91.71
2018-03-23T10:58:32.250Z,91.71
2018-03-23T10:59:32.233Z,90.89
2018-03-23T11:00:32.235Z,90.99
2018-03-23T11:01:31.970Z,90.04
2018-03-23T11:02:32.206Z,89.18
2018-03-23T11:03:31.936Z,89.56
2018-03-23T11:04:32.197Z,90.04
2018-03-23T11:05:32.182Z,90.8
2018-03-23T11:06:31.918Z,90.99
2018-03-23T11:07:32.969Z,91.71
2018-03-23T11:08:32.174Z,91.99
2018-03-23T11:09:32.282Z,91.18
2018-03-23T11:10:32.155Z,91.18
2018-03-23T11:11:32.146Z,91.37
2018-03-23T11:12:34.050Z,90.99
2018-03-23T11:13:32.144Z,90.85
2018-03-23T11:14:32.124Z,91.94
2018-03-23T11:15:32.121Z,92.75
2018-03-23T11:16:31.853Z,93.41
2018-03-23T11:17:31.864Z,92.27
2018-03-23T11:18:31.857Z,91.89
2018-03-23T11:19:32.107Z,92.27
2018-03-23T11:20:31.833Z,92.37
2018-03-23T11:21:32.090Z,92.66
2018-03-23T11:22:31.822Z,93.13
2018-03-23T11:23:31.821Z,93.6
2018-03-23T11:24:31.869Z,94.56
2018-03-23T11:25:31.807Z,94.56
2018-03-23T11:26:31.806Z,94.37
2018-03-23T11:27:32.062Z,94.93
2018-03-23T11:28:32.061Z,95.22
2018-03-23T11:29:32.064Z,96.08
2018-03-23T11:30:32.041Z,96.93
2018-03-23T11:31:31.795Z,97.6
2018-03-23T11:32:32.045Z,99.3
2018-03-23T11:33:32.073Z,98.93
2018-03-23T11:34:32.046Z,99.97
2018-03-23T11:35:32.030Z,99.99
2018-03-23T11:36:31.751Z,99.99
2018-03-23T11:37:32.000Z,99.99
2018-03-23T11:38:32.009Z,99.99
2018-03-23T11:39:32.005Z,99.99
2018-03-23T11:40:31.728Z,99.99
2018-03-23T11:41:31.724Z,99.99
2018-03-23T11:42:31.718Z,99.99
2018-03-23T11:43:31.984Z,99.99
2018-03-23T11:44:31.706Z,99.99
2018-03-23T11:45:31.701Z,99.99
2018-03-23T11:46:31.766Z,99.99
2018-03-23T11:47:31.987Z,99.99
2018-03-23T11:48:31.686Z,99.99
2018-03-23T11:49:31.947Z,99.99
2018-03-23T11:50:31.928Z,99.99
2018-03-23T11:51:31.733Z,99.99
2018-03-23T11:52:31.929Z,99.99
2018-03-23T11:53:31.915Z,99.99
2018-03-23T11:54:31.982Z,99.99
2018-03-23T11:55:31.970Z,99.99
2018-03-23T11:56:31.998Z,99.99
2018-03-23T11:57:31.990Z,99.99
2018-03-23T11:58:31.638Z,99.84
2018-03-23T11:59:31.884Z,98.6
2018-03-23T12:00:31.915Z,97.27
2018-03-23T12:01:31.640Z,97.17
2018-03-23T12:02:31.873Z,95.94
2018-03-23T12:03:31.912Z,96.41
2018-03-23T12:04:31.864Z,95.12
2018-03-23T12:05:31.860Z,96.36
2018-03-23T12:06:31.854Z,93.04
2018-03-23T12:07:31.934Z,92.84
2018-03-23T12:08:31.857Z,90.56
2018-03-23T12:09:31.860Z,92.27
2018-03-23T12:10:31.854Z,92.18
2018-03-23T12:11:31.840Z,90.28
2018-03-23T12:12:31.846Z,91.61
2018-03-23T12:13:31.829Z,91.89
2018-03-23T12:14:31.882Z,92.56
2018-03-23T12:15:31.575Z,91.89
2018-03-23T12:16:31.825Z,91.42
2018-03-23T12:17:31.662Z,91.32
2018-03-23T12:18:31.733Z,91.22
2018-03-23T12:19:31.567Z,91.03
2018-03-23T12:20:31.557Z,91.89
2018-03-23T12:21:31.884Z,92.13
2018-03-23T12:22:31.814Z,88.7
2018-03-23T12:23:31.554Z,87.65
2018-03-23T12:24:31.543Z,86.9
2018-03-23T12:25:31.796Z,87.65
2018-03-23T12:26:31.795Z,88.99
2018-03-23T12:27:31.582Z,88.79
2018-03-23T12:28:31.787Z,88.37
2018-03-23T12:29:31.783Z,86.85
2018-03-23T12:30:31.788Z,87.52
2018-03-23T12:31:31.779Z,88.46
2018-03-23T12:32:31.583Z,88.75
2018-03-23T12:33:31.779Z,87.42
2018-03-23T12:34:31.788Z,87.99
2018-03-23T12:35:31.769Z,88.46
2018-03-23T12:36:31.512Z,88.75
2018-03-23T12:37:31.772Z,88.56
2018-03-23T12:38:31.787Z,88.75
2018-03-23T12:39:31.503Z,88.56
2018-03-23T12:40:31.761Z,88.18
2018-03-23T12:41:31.798Z,88.85
2018-03-23T12:42:31.745Z,88.94
2018-03-23T12:43:32.995Z,88.28
2018-03-23T12:44:31.741Z,87.99
2018-03-23T12:45:31.905Z,88.56
2018-03-23T12:46:31.741Z,88.37
2018-03-23T12:47:31.730Z,88.94
2018-03-23T12:48:31.735Z,87.99
2018-03-23T12:49:31.725Z,88.46
2018-03-23T12:50:31.465Z,87.95
2018-03-23T12:51:31.727Z,89.18
2018-03-23T12:52:31.726Z,90.23
2018-03-23T12:53:31.455Z,91.08
2018-03-23T12:54:31.705Z,91.94
2018-03-23T12:55:31.702Z,91.18
2018-03-23T12:56:31.694Z,90.33
2018-03-23T12:57:31.694Z,89.47
2018-03-23T12:58:31.703Z,89.09
2018-03-23T12:59:31.693Z,89.75
2018-03-23T13:00:31.453Z,89.75
2018-03-23T13:01:31.678Z,89.94
2018-03-23T13:02:31.674Z,88.52
2018-03-23T13:03:31.677Z,88.56
2018-03-23T13:04:31.484Z,88.46
2018-03-23T13:05:31.678Z,88.46
2018-03-23T13:06:31.658Z,86.94
2018-03-23T13:07:31.399Z,86.57
2018-03-23T13:08:31.399Z,86.28
2018-03-23T13:09:31.743Z,86.47
2018-03-23T13:10:31.393Z,87.8
2018-03-23T13:11:31.642Z,86.94
2018-03-23T13:12:31.381Z,86.38
2018-03-23T13:13:31.632Z,86.18
2018-03-23T13:14:31.630Z,86.28
2018-03-23T13:15:31.625Z,86.38
2018-03-23T13:16:31.621Z,86.47
2018-03-23T13:17:31.664Z,86.57
2018-03-23T13:18:31.616Z,86.28
2018-03-23T13:19:31.618Z,86.94
2018-03-23T13:20:31.607Z,87.65
2018-03-23T13:21:31.654Z,86.99
2018-03-23T13:22:31.656Z,86.61
2018-03-23T13:23:31.596Z,85.85
2018-03-23T13:24:31.612Z,86.13
2018-03-23T13:25:31.590Z,86.61
2018-03-23T13:26:31.585Z,87.32
2018-03-23T13:27:31.327Z,85.89
2018-03-23T13:28:31.329Z,83.89
2018-03-23T13:29:31.363Z,82.18
2018-03-23T13:30:31.626Z,80.84
2018-03-23T13:31:31.332Z,81.03